Time;durP1;ratioP1;P1;durP2;ratioP2;P2;SDS_P1;SDS_P2;PMS_P1;PMS_P2;Temp;Humidity;BMP_temperature;BMP_pressure;BME280_temperature;BME280_humidity;BME280_pressure;Samples;Min_cycle;Max_cycle;Signal;HPM_P1;HPM_P2
2024/01/19 00:02:17;;;;;;;118.80;47.67;;;;;;;;;;5014436;28;20021;-49
2024/01/19 00:04:43;;;;;;;112.53;46.93;;;;;;;;;;5015816;28;20030;-50
2024/01/19 00:07:09;;;;;;;108.55;47.33;;;;;;;;;;5033817;28;20033;-50
2024/01/19 00:09:36;;;;;;;108.95;47.65;;;;;;;;;;5023302;28;20034;-51
2024/01/19 00:12:02;;;;;;;108.68;48.22;;;;;;;;;;5016691;28;20554;-53
2024/01/19 00:14:28;;;;;;;106.75;47.70;;;;;;;;;;5014335;28;20026;-53
2024/01/19 00:16:55;;;;;;;114.18;48.83;;;;;;;;;;5026503;28;20025;-50
2024/01/19 00:19:21;;;;;;;118.13;49.38;;;;;;;;;;5013652;28;20080;-49
2024/01/19 00:21:47;;;;;;;98.60;45.35;;;;;;;;;;5013636;28;20026;-52
2024/01/19 00:24:14;;;;;;;100.05;45.75;;;;;;;;;;5028145;28;20044;-51
2024/01/19 00:26:40;;;;;;;87.20;45.08;;;;;;;;;;5033342;28;20034;-55
2024/01/19 00:29:09;;;;;;;117.87;51.93;;;;;;;;;;5032139;28;20033;-50
2024/01/19 00:31:36;;;;;;;114.43;47.25;;;;;;;;;;5026453;28;20404;-49
2024/01/19 00:34:02;;;;;;;100.30;47.58;;;;;;;;;;5031312;28;20650;-50
2024/01/19 00:36:28;;;;;;;108.25;48.15;;;;;;;;;;5032867;28;20064;-51
2024/01/19 00:38:55;;;;;;;118.65;51.28;;;;;;;;;;5032891;28;20017;-51
2024/01/19 00:41:21;;;;;;;121.50;52.20;;;;;;;;;;5031755;28;20022;-49
2024/01/19 00:43:47;;;;;;;114.63;48.37;;;;;;;;;;5020483;28;20036;-52
2024/01/19 00:46:13;;;;;;;101.90;46.47;;;;;;;;;;5022465;28;20479;-49
2024/01/19 00:48:40;;;;;;;106.33;47.23;;;;;;;;;;5032902;28;20040;-50
2024/01/19 00:51:06;;;;;;;100.55;45.50;;;;;;;;;;5031285;28;20029;-49
2024/01/19 00:53:32;;;;;;;107.00;45.92;;;;;;;;;;5024837;28;20033;-55
2024/01/19 00:55:58;;;;;;;99.97;46.50;;;;;;;;;;5022079;28;20037;-51
2024/01/19 00:58:25;;;;;;;101.88;43.45;;;;;;;;;;5027186;28;20301;-50
2024/01/19 01:00:51;;;;;;;106.47;47.67;;;;;;;;;;5019168;28;20117;-53
2024/01/19 01:03:27;;;;;;;94.45;42.35;;;;;;;;;;5027645;28;20056;-52
2024/01/19 01:05:57;;;;;;;114.10;48.45;;;;;;;;;;5012824;28;20068;-51
2024/01/19 01:08:24;;;;;;;116.88;46.65;;;;;;;;;;5013435;28;20116;-51
2024/01/19 01:10:50;;;;;;;115.05;45.35;;;;;;;;;;5012671;28;20041;-51
2024/01/19 01:13:17;;;;;;;110.70;47.08;;;;;;;;;;5016825;28;20043;-52
2024/01/19 01:15:43;;;;;;;115.13;48.00;;;;;;;;;;5026806;28;20320;-51
2024/01/19 01:18:10;;;;;;;123.47;47.97;;;;;;;;;;5011432;28;20444;-54
2024/01/19 01:20:36;;;;;;;119.65;49.47;;;;;;;;;;5012636;28;20034;-51
2024/01/19 01:23:03;;;;;;;110.97;46.67;;;;;;;;;;5012341;28;20037;-49
2024/01/19 01:25:30;;;;;;;104.88;46.58;;;;;;;;;;5012450;28;20500;-52
2024/01/19 01:27:56;;;;;;;100.68;45.58;;;;;;;;;;5022016;28;20562;-50
2024/01/19 01:30:22;;;;;;;96.90;43.63;;;;;;;;;;5019408;28;20083;-49
2024/01/19 01:32:49;;;;;;;106.27;46.03;;;;;;;;;;5031605;28;20034;-49
2024/01/19 01:35:15;;;;;;;111.85;47.70;;;;;;;;;;5012126;28;20403;-49
2024/01/19 01:37:41;;;;;;;100.70;44.20;;;;;;;;;;5024349;28;20069;-50
2024/01/19 01:40:08;;;;;;;97.85;43.70;;;;;;;;;;5032070;28;20059;-51
2024/01/19 01:42:35;;;;;;;112.13;48.30;;;;;;;;;;5030220;28;20381;-50
2024/01/19 01:45:01;;;;;;;118.22;49.28;;;;;;;;;;5025982;28;20373;-50
2024/01/19 01:47:28;;;;;;;117.55;48.95;;;;;;;;;;5031027;28;20360;-53
2024/01/19 01:49:55;;;;;;;114.25;47.97;;;;;;;;;;5031827;28;20131;-51
2024/01/19 01:52:21;;;;;;;121.53;48.10;;;;;;;;;;5030521;28;20033;-52
2024/01/19 01:54:47;;;;;;;114.13;49.43;;;;;;;;;;5014568;28;20080;-50
2024/01/19 01:57:15;;;;;;;117.60;48.50;;;;;;;;;;5012073;28;20033;-50
2024/01/19 01:59:41;;;;;;;115.75;49.50;;;;;;;;;;5012103;28;20096;-50
2024/01/19 02:02:07;;;;;;;106.15;43.95;;;;;;;;;;5028491;28;20072;-50
2024/01/19 02:04:37;;;;;;;126.47;52.58;;;;;;;;;;5019032;28;20492;-50
2024/01/19 02:07:03;;;;;;;118.70;49.20;;;;;;;;;;5012015;28;20655;-50
2024/01/19 02:09:29;;;;;;;142.63;50.07;;;;;;;;;;5011981;28;20117;-51
2024/01/19 02:11:56;;;;;;;103.25;47.15;;;;;;;;;;5023333;28;20487;-51
2024/01/19 02:14:22;;;;;;;113.27;49.23;;;;;;;;;;5023745;28;20057;-49
2024/01/19 02:16:48;;;;;;;97.73;45.67;;;;;;;;;;5017250;28;20460;-50
2024/01/19 02:19:14;;;;;;;111.15;47.65;;;;;;;;;;5014748;28;20026;-54
2024/01/19 02:21:40;;;;;;;105.35;47.63;;;;;;;;;;5019391;28;20021;-52
2024/01/19 02:24:13;;;;;;;131.80;49.03;;;;;;;;;;5027325;28;20022;-52
2024/01/19 02:26:39;;;;;;;123.07;50.20;;;;;;;;;;5017142;28;20029;-53
2024/01/19 02:29:06;;;;;;;151.27;56.10;;;;;;;;;;5028527;28;20407;-49
2024/01/19 02:31:32;;;;;;;170.13;59.70;;;;;;;;;;5009244;28;20492;-49
2024/01/19 02:33:58;;;;;;;180.98;60.50;;;;;;;;;;5016658;28;20087;-50
2024/01/19 02:36:24;;;;;;;200.77;62.22;;;;;;;;;;5018183;28;20034;-49
2024/01/19 02:38:51;;;;;;;199.40;62.42;;;;;;;;;;5024106;28;20022;-54
2024/01/19 02:41:17;;;;;;;208.55;68.22;;;;;;;;;;5033398;28;20108;-53
2024/01/19 02:43:43;;;;;;;197.57;67.78;;;;;;;;;;5018899;28;20115;-50
2024/01/19 02:46:10;;;;;;;209.93;67.45;;;;;;;;;;5023346;28;20030;-49
2024/01/19 02:48:36;;;;;;;299.02;77.95;;;;;;;;;;5033332;28;20105;-49
2024/01/19 02:51:02;;;;;;;281.30;77.88;;;;;;;;;;5032826;28;20063;-49
2024/01/19 02:53:28;;;;;;;355.05;93.78;;;;;;;;;;5028757;28;20022;-49
2024/01/19 02:55:59;;;;;;;341.08;88.90;;;;;;;;;;5037750;28;20027;-49
2024/01/19 02:58:26;;;;;;;296.38;83.78;;;;;;;;;;5019407;28;20052;-49
2024/01/19 03:00:54;;;;;;;281.85;80.45;;;;;;;;;;5017807;28;20026;-50
2024/01/19 03:03:20;;;;;;;344.52;89.00;;;;;;;;;;5018057;28;20037;-49
2024/01/19 03:05:46;;;;;;;357.53;97.17;;;;;;;;;;5017768;28;20117;-50
2024/01/19 03:08:13;;;;;;;301.93;85.13;;;;;;;;;;5032027;28;20037;-49
2024/01/19 03:10:39;;;;;;;310.57;86.03;;;;;;;;;;5036158;28;20033;-52
2024/01/19 03:13:05;;;;;;;324.27;88.50;;;;;;;;;;5016645;28;20522;-52
2024/01/19 03:15:31;;;;;;;270.10;80.75;;;;;;;;;;5027550;28;20030;-52
2024/01/19 03:17:57;;;;;;;271.40;80.38;;;;;;;;;;5017866;28;20037;-54
2024/01/19 03:20:24;;;;;;;335.25;87.93;;;;;;;;;;5018071;28;20476;-51
2024/01/19 03:22:50;;;;;;;311.88;83.75;;;;;;;;;;5036186;28;20030;-50
2024/01/19 03:25:16;;;;;;;364.73;90.47;;;;;;;;;;5037423;28;20033;-51
2024/01/19 03:27:42;;;;;;;393.27;88.88;;;;;;;;;;5035865;28;20037;-50
2024/01/19 03:30:08;;;;;;;299.50;84.00;;;;;;;;;;5035209;28;20033;-49
2024/01/19 03:32:35;;;;;;;326.43;88.13;;;;;;;;;;5025273;28;20488;-50
2024/01/19 03:35:01;;;;;;;295.88;83.35;;;;;;;;;;5014462;28;20284;-50
2024/01/19 03:37:28;;;;;;;282.00;83.38;;;;;;;;;;5013219;28;20041;-50
2024/01/19 03:39:54;;;;;;;297.98;83.05;;;;;;;;;;5014464;28;20084;-52
2024/01/19 03:42:20;;;;;;;279.73;81.20;;;;;;;;;;5028267;28;20041;-50
2024/01/19 03:44:46;;;;;;;348.33;94.20;;;;;;;;;;5025294;28;20036;-52
2024/01/19 03:47:12;;;;;;;237.68;80.80;;;;;;;;;;5014192;28;20030;-49
2024/01/19 03:49:39;;;;;;;285.00;87.05;;;;;;;;;;5014275;28;20488;-51
2024/01/19 03:52:05;;;;;;;;;;;;;;;;;;5025128;28;20432;-51
2024/01/19 03:54:32;;;;;;;236.60;78.32;;;;;;;;;;5022336;28;19931;-50
2024/01/19 03:56:59;;;;;;;240.20;82.00;;;;;;;;;;5014865;28;20484;-50
2024/01/19 03:59:26;;;;;;;257.55;83.35;;;;;;;;;;5015234;28;20715;-49
2024/01/19 04:01:52;;;;;;;211.43;79.05;;;;;;;;;;5003623;28;20030;-49
2024/01/19 04:04:18;;;;;;;213.90;77.22;;;;;;;;;;5033520;28;20492;-52
2024/01/19 04:06:44;;;;;;;238.32;82.18;;;;;;;;;;5031908;28;20041;-50
2024/01/19 04:09:11;;;;;;;226.27;79.93;;;;;;;;;;5002496;28;20060;-50
2024/01/19 04:11:37;;;;;;;204.63;75.95;;;;;;;;;;5025352;28;20026;-50
2024/01/19 04:14:03;;;;;;;190.67;74.23;;;;;;;;;;5029036;28;20045;-50
2024/01/19 04:16:30;;;;;;;223.07;81.25;;;;;;;;;;5026486;28;20113;-51
2024/01/19 04:18:56;;;;;;;193.27;77.03;;;;;;;;;;5015787;28;20025;-50
2024/01/19 04:21:22;;;;;;;170.25;71.60;;;;;;;;;;5033521;28;20484;-50
2024/01/19 04:23:49;;;;;;;171.32;72.72;;;;;;;;;;5020360;28;20022;-49
2024/01/19 04:26:15;;;;;;;151.60;63.78;;;;;;;;;;5016424;28;20029;-51
2024/01/19 04:28:41;;;;;;;161.43;68.70;;;;;;;;;;5013607;28;20108;-50
2024/01/19 04:31:07;;;;;;;155.57;64.30;;;;;;;;;;5023924;28;20022;-50
2024/01/19 04:33:33;;;;;;;151.27;69.43;;;;;;;;;;5011961;28;20466;-53
2024/01/19 04:35:59;;;;;;;153.57;64.40;;;;;;;;;;5014410;28;20069;-51
2024/01/19 04:38:26;;;;;;;151.00;70.30;;;;;;;;;;5013425;28;20029;-52
2024/01/19 04:40:52;;;;;;;144.85;64.60;;;;;;;;;;5020871;28;20025;-51
2024/01/19 04:43:18;;;;;;;143.35;65.50;;;;;;;;;;5033224;28;20029;-50
2024/01/19 04:45:45;;;;;;;149.18;61.97;;;;;;;;;;5024328;28;20028;-50
2024/01/19 04:48:11;;;;;;;147.32;63.80;;;;;;;;;;5032973;28;20193;-50
2024/01/19 04:50:38;;;;;;;166.05;66.82;;;;;;;;;;5025843;28;20057;-47
2024/01/19 04:53:05;;;;;;;145.00;62.97;;;;;;;;;;5020112;28;20491;-47
2024/01/19 04:55:31;;;;;;;157.98;67.20;;;;;;;;;;5023548;28;20029;-48
2024/01/19 04:57:57;;;;;;;154.07;66.97;;;;;;;;;;5031519;28;20068;-48
2024/01/19 05:00:24;;;;;;;176.55;72.07;;;;;;;;;;4999492;28;20492;-49
2024/01/19 05:02:50;;;;;;;159.25;72.88;;;;;;;;;;5012810;28;20065;-48
2024/01/19 05:05:17;;;;;;;154.88;64.68;;;;;;;;;;5012689;28;20160;-49
2024/01/19 05:07:43;;;;;;;166.43;67.10;;;;;;;;;;5011574;28;20038;-50
2024/01/19 05:10:09;;;;;;;164.98;70.55;;;;;;;;;;5012464;28;20282;-49
2024/01/19 05:12:36;;;;;;;195.95;79.10;;;;;;;;;;5011447;28;20492;-49
2024/01/19 05:15:02;;;;;;;195.93;79.40;;;;;;;;;;5012536;28;20037;-51
2024/01/19 05:17:28;;;;;;;168.10;68.07;;;;;;;;;;5012661;28;20034;-51
2024/01/19 05:19:55;;;;;;;156.32;67.13;;;;;;;;;;5012727;28;20029;-49
2024/01/19 05:22:21;;;;;;;158.77;66.05;;;;;;;;;;5012612;28;20026;-50
2024/01/19 05:24:47;;;;;;;149.73;59.15;;;;;;;;;;5012426;28;20090;-51
2024/01/19 05:27:14;;;;;;;155.95;66.90;;;;;;;;;;5011361;28;20026;-51
2024/01/19 05:29:41;;;;;;;168.20;70.45;;;;;;;;;;4994894;28;20488;-51
2024/01/19 05:32:07;;;;;;;151.30;68.90;;;;;;;;;;5012352;28;20029;-49
2024/01/19 05:34:33;;;;;;;154.07;66.40;;;;;;;;;;5012233;28;20030;-48
2024/01/19 05:36:59;;;;;;;147.37;64.30;;;;;;;;;;5012134;28;20132;-49
2024/01/19 05:39:26;;;;;;;156.68;64.78;;;;;;;;;;5012331;28;20106;-49
2024/01/19 05:41:52;;;;;;;152.00;61.13;;;;;;;;;;5012126;28;20432;-49
2024/01/19 05:44:18;;;;;;;148.30;63.20;;;;;;;;;;5012167;28;20069;-49
2024/01/19 05:46:44;;;;;;;140.20;61.50;;;;;;;;;;5012217;28;20434;-49
2024/01/19 05:49:10;;;;;;;143.30;62.67;;;;;;;;;;5010968;28;20100;-48
2024/01/19 05:51:37;;;;;;;155.27;67.07;;;;;;;;;;5012172;28;20034;-50
2024/01/19 05:54:03;;;;;;;144.05;62.55;;;;;;;;;;5011377;28;20041;-49
2024/01/19 05:56:29;;;;;;;142.97;60.00;;;;;;;;;;5010795;28;20541;-47
2024/01/19 05:58:55;;;;;;;140.05;58.28;;;;;;;;;;5011968;28;20635;-50
2024/01/19 06:01:21;;;;;;;155.57;66.38;;;;;;;;;;5010836;28;20037;-49
2024/01/19 06:03:47;;;;;;;157.68;68.18;;;;;;;;;;5011744;28;20022;-49
2024/01/19 06:06:14;;;;;;;153.15;64.45;;;;;;;;;;5012457;28;20049;-50
2024/01/19 06:08:40;;;;;;;161.55;68.00;;;;;;;;;;5010809;28;20450;-53
2024/01/19 06:11:06;;;;;;;153.55;60.85;;;;;;;;;;5011854;28;20029;-48
2024/01/19 06:13:32;;;;;;;161.75;62.83;;;;;;;;;;5011764;28;20088;-48
2024/01/19 06:16:00;;;;;;;145.50;65.25;;;;;;;;;;5010592;28;20432;-49
2024/01/19 06:18:26;;;;;;;148.35;64.80;;;;;;;;;;5010597;28;20041;-51
2024/01/19 06:20:54;;;;;;;164.95;68.75;;;;;;;;;;5010580;28;20070;-49
2024/01/19 06:23:21;;;;;;;155.77;63.92;;;;;;;;;;5011687;28;20056;-49
2024/01/19 06:25:47;;;;;;;155.10;65.57;;;;;;;;;;5011580;28;20072;-49
2024/01/19 06:28:13;;;;;;;154.98;66.13;;;;;;;;;;5011734;28;20038;-49
2024/01/19 06:30:42;;;;;;;156.60;63.27;;;;;;;;;;5011666;28;20092;-48
2024/01/19 06:33:08;;;;;;;151.30;59.63;;;;;;;;;;5011621;28;20069;-49
2024/01/19 06:35:35;;;;;;;141.18;62.00;;;;;;;;;;5011515;28;20042;-49
2024/01/19 06:38:01;;;;;;;144.40;61.72;;;;;;;;;;5011883;28;20523;-48
2024/01/19 06:40:27;;;;;;;155.27;65.88;;;;;;;;;;5011621;28;20026;-49
2024/01/19 06:42:53;;;;;;;154.07;65.30;;;;;;;;;;5011507;28;20038;-49
2024/01/19 06:45:19;;;;;;;154.43;64.53;;;;;;;;;;5011458;28;20073;-48
2024/01/19 06:47:46;;;;;;;148.95;61.47;;;;;;;;;;5011574;28;20030;-50
2024/01/19 06:50:12;;;;;;;157.30;62.87;;;;;;;;;;5011875;28;20034;-49
2024/01/19 06:52:39;;;;;;;151.45;61.28;;;;;;;;;;5011589;28;20029;-48
2024/01/19 06:55:05;;;;;;;157.07;66.28;;;;;;;;;;5010057;28;20033;-49
2024/01/19 06:57:33;;;;;;;146.68;60.78;;;;;;;;;;4993972;28;20109;-52
2024/01/19 06:59:59;;;;;;;165.07;63.95;;;;;;;;;;5011476;28;20026;-51
2024/01/19 07:02:25;;;;;;;154.27;61.67;;;;;;;;;;5011433;28;20033;-51
2024/01/19 07:04:51;;;;;;;160.65;64.88;;;;;;;;;;5011241;28;20022;-52
2024/01/19 07:07:18;;;;;;;159.75;65.05;;;;;;;;;;5013843;28;20033;-50
2024/01/19 07:09:44;;;;;;;161.23;65.53;;;;;;;;;;5015091;28;20076;-51
2024/01/19 07:12:11;;;;;;;142.23;60.28;;;;;;;;;;5015014;28;20113;-48
2024/01/19 07:14:38;;;;;;;;;;;;;;;;;;4997688;28;20034;-48
2024/01/19 07:17:04;;;;;;;140.98;59.45;;;;;;;;;;5014714;28;19917;-49
2024/01/19 07:19:30;;;;;;;148.33;62.00;;;;;;;;;;5015012;28;20058;-49
2024/01/19 07:21:56;;;;;;;143.43;59.63;;;;;;;;;;5013529;28;20033;-50
2024/01/19 07:24:22;;;;;;;146.20;60.30;;;;;;;;;;5014607;28;20045;-49
2024/01/19 07:26:49;;;;;;;141.40;56.70;;;;;;;;;;5013595;28;20087;-48
2024/01/19 07:29:15;;;;;;;146.35;59.28;;;;;;;;;;5014722;28;20029;-51
2024/01/19 07:31:41;;;;;;;154.20;58.83;;;;;;;;;;5014581;28;20044;-52
2024/01/19 07:34:07;;;;;;;145.45;63.88;;;;;;;;;;5013359;28;20428;-51
2024/01/19 07:36:34;;;;;;;140.02;56.90;;;;;;;;;;5013330;28;20033;-47
2024/01/19 07:39:00;;;;;;;147.70;62.00;;;;;;;;;;5014567;28;20049;-50
2024/01/19 07:41:26;;;;;;;136.10;58.67;;;;;;;;;;4996888;28;20033;-49
2024/01/19 07:43:54;;;;;;;143.10;58.30;;;;;;;;;;5014168;28;20034;-48
2024/01/19 07:46:20;;;;;;;141.75;56.35;;;;;;;;;;5014404;28;20030;-50
2024/01/19 07:48:46;;;;;;;131.10;56.95;;;;;;;;;;5014416;28;20045;-52
2024/01/19 07:51:13;;;;;;;137.68;61.17;;;;;;;;;;5013095;28;20045;-48
2024/01/19 07:53:39;;;;;;;134.30;55.88;;;;;;;;;;5014002;28;20100;-50
2024/01/19 07:56:06;;;;;;;141.65;57.20;;;;;;;;;;5014210;28;20133;-48
2024/01/19 07:58:32;;;;;;;136.23;55.72;;;;;;;;;;5014254;28;20121;-50
2024/01/19 08:00:58;;;;;;;134.13;54.35;;;;;;;;;;5014174;28;20022;-48
2024/01/19 08:03:25;;;;;;;139.48;56.95;;;;;;;;;;4996379;28;20057;-47
2024/01/19 08:05:51;;;;;;;140.05;56.70;;;;;;;;;;5014087;28;20488;-49
2024/01/19 08:08:17;;;;;;;135.98;54.42;;;;;;;;;;5013903;28;20025;-48
2024/01/19 08:10:44;;;;;;;143.63;52.10;;;;;;;;;;5014034;28;20037;-49
2024/01/19 08:13:10;;;;;;;152.97;55.37;;;;;;;;;;5013870;28;20137;-48
2024/01/19 08:15:36;;;;;;;134.48;53.38;;;;;;;;;;5012347;28;20112;-52
2024/01/19 08:18:02;;;;;;;159.85;61.83;;;;;;;;;;5012153;28;20026;-49
2024/01/19 08:20:29;;;;;;;138.07;55.53;;;;;;;;;;4996301;28;20396;-49
2024/01/19 08:22:55;;;;;;;163.98;62.33;;;;;;;;;;5013548;28;20049;-51
2024/01/19 08:25:21;;;;;;;155.43;60.27;;;;;;;;;;5013562;28;20034;-48
2024/01/19 08:27:48;;;;;;;147.02;55.45;;;;;;;;;;5013726;28;20036;-50
2024/01/19 08:30:16;;;;;;;137.10;57.77;;;;;;;;;;5013637;28;20156;-48
2024/01/19 08:32:42;;;;;;;145.95;57.75;;;;;;;;;;5013483;28;20389;-48
2024/01/19 08:35:08;;;;;;;138.80;52.90;;;;;;;;;;5012143;28;20407;-51
2024/01/19 08:37:38;;;;;;;147.82;61.17;;;;;;;;;;5013468;28;20026;-47
2024/01/19 08:40:05;;;;;;;131.07;55.63;;;;;;;;;;5013955;28;20036;-53
2024/01/19 08:42:32;;;;;;;144.55;59.15;;;;;;;;;;5013147;28;20053;-48
2024/01/19 08:44:58;;;;;;;130.15;56.28;;;;;;;;;;5013231;28;20037;-47
2024/01/19 08:47:25;;;;;;;137.57;51.33;;;;;;;;;;5013353;28;20112;-48
2024/01/19 08:49:51;;;;;;;130.52;54.58;;;;;;;;;;5013290;28;20038;-48
2024/01/19 08:52:17;;;;;;;130.25;51.72;;;;;;;;;;5011886;28;20395;-48
2024/01/19 08:54:44;;;;;;;134.32;50.75;;;;;;;;;;5011848;28;20030;-53
2024/01/19 08:57:10;;;;;;;133.27;56.10;;;;;;;;;;5011761;28;20084;-49
2024/01/19 08:59:36;;;;;;;122.57;46.67;;;;;;;;;;5011948;28;20397;-50
2024/01/19 09:02:03;;;;;;;130.55;51.70;;;;;;;;;;5013144;28;20026;-48
2024/01/19 09:04:29;;;;;;;128.40;53.13;;;;;;;;;;5012834;28;20026;-51
2024/01/19 09:06:55;;;;;;;124.05;47.38;;;;;;;;;;5011613;28;20273;-52
2024/01/19 09:09:22;;;;;;;130.53;48.50;;;;;;;;;;5011743;28;20237;-50
2024/01/19 09:11:48;;;;;;;138.73;53.22;;;;;;;;;;5012670;28;20485;-50
2024/01/19 09:14:15;;;;;;;132.70;53.10;;;;;;;;;;5011619;28;20057;-50
2024/01/19 09:16:44;;;;;;;132.60;52.22;;;;;;;;;;5011471;28;20375;-49
2024/01/19 09:19:11;;;;;;;141.50;57.95;;;;;;;;;;5012670;28;20095;-48
2024/01/19 09:21:39;;;;;;;136.25;54.50;;;;;;;;;;5011353;28;20037;-49
2024/01/19 09:24:09;;;;;;;145.32;60.60;;;;;;;;;;5012384;28;20512;-49
2024/01/19 09:26:35;;;;;;;131.43;53.47;;;;;;;;;;5012595;28;20041;-48
2024/01/19 09:29:02;;;;;;;137.43;59.67;;;;;;;;;;5010430;28;20403;-48
2024/01/19 09:31:28;;;;;;;139.40;55.13;;;;;;;;;;5011339;28;20030;-48
2024/01/19 09:33:54;;;;;;;141.02;59.90;;;;;;;;;;5012239;28;20579;-51
2024/01/19 09:36:20;;;;;;;136.77;55.85;;;;;;;;;;5012336;28;20073;-50
2024/01/19 09:38:46;;;;;;;133.80;51.70;;;;;;;;;;4995109;28;20026;-51
2024/01/19 09:41:21;;;;;;;128.98;54.55;;;;;;;;;;5012410;28;20026;-50
2024/01/19 09:43:48;;;;;;;128.05;53.33;;;;;;;;;;5012049;28;20037;-52
2024/01/19 09:46:14;;;;;;;;;;;;;;;;;;5011415;28;20029;-50
2024/01/19 09:48:45;;;;;;;117.80;55.00;;;;;;;;;;5012243;28;20447;-52
2024/01/19 09:51:11;;;;;;;122.20;55.75;;;;;;;;;;5012184;28;20084;-48
2024/01/19 09:53:42;;;;;;;117.10;52.63;;;;;;;;;;5011896;28;20030;-48
2024/01/19 09:56:09;;;;;;;106.80;46.65;;;;;;;;;;5012465;28;20030;-51
2024/01/19 09:58:35;;;;;;;104.05;48.88;;;;;;;;;;5010908;28;20025;-49
2024/01/19 10:01:01;;;;;;;104.80;46.67;;;;;;;;;;5010894;28;20026;-49
2024/01/19 10:03:28;;;;;;;102.28;48.67;;;;;;;;;;5010692;28;20026;-49
2024/01/19 10:05:54;;;;;;;104.55;47.47;;;;;;;;;;5010796;28;20414;-49
2024/01/19 10:08:21;;;;;;;111.07;50.80;;;;;;;;;;5012115;28;20496;-48
2024/01/19 10:10:47;;;;;;;113.32;48.58;;;;;;;;;;5012025;28;20164;-49
2024/01/19 10:13:13;;;;;;;116.72;45.42;;;;;;;;;;5011770;28;20079;-50
2024/01/19 10:15:43;;;;;;;100.53;44.57;;;;;;;;;;5010369;28;20033;-48
2024/01/19 10:18:09;;;;;;;109.82;48.63;;;;;;;;;;5011895;28;20275;-49
2024/01/19 10:20:38;;;;;;;115.60;54.65;;;;;;;;;;5010511;28;20512;-49
2024/01/19 10:23:30;;;;;;;111.35;52.60;;;;;;;;;;5010482;28;20512;-52
2024/01/19 10:26:12;;;;;;;108.88;50.30;;;;;;;;;;5008060;28;20042;-49
2024/01/19 10:28:39;;;;;;;122.30;55.22;;;;;;;;;;5010608;28;20480;-48
2024/01/19 10:31:18;;;;;;;115.95;57.65;;;;;;;;;;5011849;28;20033;-51
2024/01/19 10:33:56;;;;;;;110.20;51.22;;;;;;;;;;5011560;28;20033;-49
2024/01/19 10:36:22;;;;;;;119.30;58.65;;;;;;;;;;5011563;28;20029;-48
2024/01/19 10:38:48;;;;;;;125.47;57.42;;;;;;;;;;5012123;28;20450;-49
2024/01/19 10:41:15;;;;;;;121.22;52.78;;;;;;;;;;5014235;28;20030;-49
2024/01/19 10:43:42;;;;;;;;;;;;;;;;;;5067614;22;20045;-50
2024/01/19 10:46:20;;;;;;;118.13;54.83;;;;;;;;;;5054028;28;19921;-48
2024/01/19 10:48:46;;;;;;;121.95;53.28;;;;;;;;;;5053988;28;20033;-49
2024/01/19 10:51:13;;;;;;;133.82;58.10;;;;;;;;;;5053905;28;20498;-48
2024/01/19 10:53:40;;;;;;;125.10;57.65;;;;;;;;;;5053826;28;20055;-51
2024/01/19 10:56:06;;;;;;;111.83;52.83;;;;;;;;;;5037242;28;20475;-47
2024/01/19 10:58:33;;;;;;;120.32;54.63;;;;;;;;;;5055082;28;20625;-51
2024/01/19 11:01:00;;;;;;;;;;;;;;;;;;5055680;28;20025;-49
2024/01/19 11:03:26;;;;;;;122.93;56.10;;;;;;;;;;5054053;28;19947;-50
2024/01/19 11:05:52;;;;;;;118.55;57.22;;;;;;;;;;5054810;28;20058;-51
2024/01/19 11:08:18;;;;;;;114.50;55.63;;;;;;;;;;5036990;28;20132;-47
2024/01/19 11:10:47;;;;;;;125.75;58.67;;;;;;;;;;5053659;28;20029;-48
2024/01/19 11:13:14;;;;;;;125.18;56.25;;;;;;;;;;5053570;28;20029;-51
2024/01/19 11:15:40;;;;;;;;;;;;;;;;;;5036767;28;20075;-49
2024/01/19 11:18:06;;;;;;;131.60;57.75;;;;;;;;;;5054573;28;19954;-51
2024/01/19 11:20:33;;;;;;;116.15;57.50;;;;;;;;;;5054612;28;20025;-49
2024/01/19 11:23:09;;;;;;;117.65;54.90;;;;;;;;;;5053136;28;20029;-49
2024/01/19 11:25:44;;;;;;;120.72;56.70;;;;;;;;;;5053327;28;20037;-48
2024/01/19 11:28:13;;;;;;;111.90;53.67;;;;;;;;;;5046741;28;20040;-49
2024/01/19 11:30:44;;;;;;;120.75;58.83;;;;;;;;;;5052165;28;21007;-48
2024/01/19 11:33:19;;;;;;;121.25;58.00;;;;;;;;;;5053774;28;20035;-51
2024/01/19 11:35:49;;;;;;;119.25;60.35;;;;;;;;;;5052092;28;20021;-46
2024/01/19 11:38:34;;;;;;;111.88;47.75;;;;;;;;;;5050392;28;20033;-51
2024/01/19 11:41:00;;;;;;;137.50;61.42;;;;;;;;;;5042825;28;20029;-50
2024/01/19 11:43:36;;;;;;;129.98;58.20;;;;;;;;;;5038064;28;20403;-48
2024/01/19 11:46:02;;;;;;;129.43;56.55;;;;;;;;;;5051584;28;20506;-48
2024/01/19 11:48:40;;;;;;;117.95;56.08;;;;;;;;;;5051058;28;20060;-49
2024/01/19 11:51:06;;;;;;;125.25;57.85;;;;;;;;;;5034234;28;20526;-51
2024/01/19 11:53:51;;;;;;;111.85;52.70;;;;;;;;;;5051299;28;20071;-48
2024/01/19 11:56:24;;;;;;;110.72;52.92;;;;;;;;;;5051796;28;20571;-48
2024/01/19 11:58:51;;;;;;;110.53;54.63;;;;;;;;;;5050801;28;20033;-50
2024/01/19 12:01:18;;;;;;;103.72;50.45;;;;;;;;;;5051423;28;20024;-51
2024/01/19 12:03:44;;;;;;;105.78;49.05;;;;;;;;;;5051764;28;20051;-46
2024/01/19 12:06:11;;;;;;;111.63;52.92;;;;;;;;;;5052216;28;20380;-51
2024/01/19 12:08:37;;;;;;;87.80;46.58;;;;;;;;;;5034016;28;20557;-46
2024/01/19 12:11:07;;;;;;;104.10;49.47;;;;;;;;;;5052126;28;20477;-50
2024/01/19 12:13:36;;;;;;;97.10;46.60;;;;;;;;;;5051747;28;20033;-51
2024/01/19 12:16:04;;;;;;;100.82;47.80;;;;;;;;;;5048331;28;20033;-47
2024/01/19 12:18:31;;;;;;;96.20;46.72;;;;;;;;;;5050706;28;20090;-49
2024/01/19 12:20:58;;;;;;;92.22;48.15;;;;;;;;;;5033841;28;20040;-49
2024/01/19 12:23:24;;;;;;;86.83;44.97;;;;;;;;;;5049959;28;20031;-48
2024/01/19 12:25:58;;;;;;;96.37;48.23;;;;;;;;;;5050278;28;20040;-48
2024/01/19 12:28:24;;;;;;;92.88;46.05;;;;;;;;;;5051581;28;20139;-48
2024/01/19 12:30:52;;;;;;;94.40;45.93;;;;;;;;;;5050215;28;20032;-49
2024/01/19 12:33:21;;;;;;;93.22;48.22;;;;;;;;;;5051276;28;20032;-48
2024/01/19 12:35:47;;;;;;;94.18;49.60;;;;;;;;;;5051184;28;20029;-48
2024/01/19 12:38:17;;;;;;;96.35;45.70;;;;;;;;;;5051424;28;20025;-49
2024/01/19 12:40:43;;;;;;;101.97;48.70;;;;;;;;;;5051523;28;20036;-47
2024/01/19 12:43:10;;;;;;;103.18;49.72;;;;;;;;;;5051211;28;20513;-53
2024/01/19 12:45:36;;;;;;;110.85;53.45;;;;;;;;;;5050937;28;20033;-48
2024/01/19 12:48:03;;;;;;;119.13;53.57;;;;;;;;;;5051320;28;20037;-52
2024/01/19 12:50:30;;;;;;;96.72;43.53;;;;;;;;;;5049631;28;20032;-51
2024/01/19 12:52:56;;;;;;;60.65;29.20;;;;;;;;;;5049587;28;20379;-48
2024/01/19 12:55:33;;;;;;;54.90;26.42;;;;;;;;;;5051043;28;20029;-50
2024/01/19 12:57:59;;;;;;;49.40;24.58;;;;;;;;;;5051160;28;20474;-48
2024/01/19 13:00:33;;;;;;;49.25;23.73;;;;;;;;;;5051301;28;20032;-49
2024/01/19 13:03:00;;;;;;;52.78;22.90;;;;;;;;;;5050735;28;20025;-49
2024/01/19 13:05:27;;;;;;;46.60;22.73;;;;;;;;;;5050777;28;20573;-47
2024/01/19 13:08:01;;;;;;;45.17;21.20;;;;;;;;;;5050901;28;20116;-47
2024/01/19 13:10:27;;;;;;;47.38;21.85;;;;;;;;;;5051189;28;20124;-47
2024/01/19 13:13:06;;;;;;;53.47;24.00;;;;;;;;;;5049086;28;20028;-52
2024/01/19 13:15:33;;;;;;;47.42;23.02;;;;;;;;;;5040447;28;20102;-47
2024/01/19 13:18:06;;;;;;;45.85;22.60;;;;;;;;;;5051331;28;20036;-49
2024/01/19 13:20:33;;;;;;;51.42;24.23;;;;;;;;;;5051079;28;20051;-50
2024/01/19 13:23:00;;;;;;;44.55;22.83;;;;;;;;;;5048804;28;20056;-51
2024/01/19 13:25:26;;;;;;;31.53;14.93;;;;;;;;;;5050088;28;20398;-48
2024/01/19 13:27:52;;;;;;;22.00;11.05;;;;;;;;;;5050298;28;20271;-50
2024/01/19 13:30:18;;;;;;;16.15;6.65;;;;;;;;;;5051711;28;20053;-48
2024/01/19 13:32:45;;;;;;;14.70;5.40;;;;;;;;;;5050558;28;20067;-50
2024/01/19 13:35:11;;;;;;;10.45;4.90;;;;;;;;;;5049625;28;20036;-48
2024/01/19 13:37:38;;;;;;;8.48;3.10;;;;;;;;;;5050613;28;20021;-47
2024/01/19 13:40:04;;;;;;;6.43;3.30;;;;;;;;;;5050834;28;20078;-51
2024/01/19 13:42:32;;;;;;;4.87;2.27;;;;;;;;;;5051100;28;20642;-51
2024/01/19 13:44:58;;;;;;;4.65;2.33;;;;;;;;;;5049361;28;20025;-50
2024/01/19 13:47:24;;;;;;;3.67;2.63;;;;;;;;;;5049645;28;20383;-48
2024/01/19 13:49:50;;;;;;;5.63;2.33;;;;;;;;;;5049626;28;20028;-52
2024/01/19 13:52:17;;;;;;;2.92;2.03;;;;;;;;;;5050896;28;20036;-48
2024/01/19 13:54:43;;;;;;;4.40;2.35;;;;;;;;;;5049497;28;20033;-48
2024/01/19 13:57:09;;;;;;;4.55;2.63;;;;;;;;;;5050482;28;20103;-50
2024/01/19 13:59:35;;;;;;;3.53;2.63;;;;;;;;;;5050413;28;20438;-48
2024/01/19 14:02:01;;;;;;;4.38;2.10;;;;;;;;;;5052815;28;20470;-49
2024/01/19 14:04:28;;;;;;;4.45;2.22;;;;;;;;;;5051563;28;20053;-48
2024/01/19 14:06:55;;;;;;;3.25;2.65;;;;;;;;;;5051506;28;20056;-53
2024/01/19 14:09:21;;;;;;;3.72;1.90;;;;;;;;;;5051702;28;20086;-50